Shubert, Nebraska
Current Conditions -  °F | °C
As of 9:53 PM on Wednesday 28 Jan 2015 (Local Time) from KFNB Reporting Station
Clear Clear  
Wind Chill: 52°   Ceiling: Unl
Heat Index: 52°   Visibility: 10mi
Dew Point: 36°   Wind: 21mph
Humidity: 54%   Direction: 320°NW
Pressure: 29.81"   Gusts: 28mph
Location:  40.24°N, 95.68°W
Report Text: KFNB 290353Z AUTO 32018G24KT 10SM CLR 11/02 A2981 RMK AO2 PK WND 32026/0326 SLP093 T01110022
Loading
Personal Weather Stations






























Interactive Weather Map New forecast layout! Learn more

10-Day Weather Forecast

Advertisements
Track Severe Weather on mobile